createdAt,value
2016-12-03T00:00:31.842Z,0
2016-12-03T00:01:42.820Z,0
2016-12-03T00:02:53.838Z,0
2016-12-03T00:04:04.888Z,0
2016-12-03T00:05:16.065Z,0
2016-12-03T00:06:27.046Z,0
2016-12-03T00:07:38.026Z,0
2016-12-03T00:08:49.001Z,0
2016-12-03T00:10:00.229Z,0
2016-12-03T00:11:11.212Z,0
2016-12-03T00:12:22.196Z,0
2016-12-03T00:13:33.380Z,0
2016-12-03T00:14:44.364Z,0
2016-12-03T00:15:55.396Z,0
2016-12-03T00:17:06.791Z,0
2016-12-03T00:18:17.781Z,0
2016-12-03T00:19:28.765Z,0
2016-12-03T00:20:39.754Z,0
2016-12-03T00:21:50.789Z,0
2016-12-03T00:23:01.769Z,0
2016-12-03T00:24:12.746Z,0
2016-12-03T00:25:23.725Z,0
2016-12-03T00:26:34.906Z,0
2016-12-03T00:27:45.941Z,0
2016-12-03T00:28:56.924Z,0
2016-12-03T00:30:07.911Z,0
2016-12-03T00:31:19.086Z,0
2016-12-03T00:32:30.065Z,0
2016-12-03T00:33:41.095Z,0
2016-12-03T00:34:52.076Z,0
2016-12-03T00:36:03.051Z,0
2016-12-03T00:37:14.234Z,0
2016-12-03T00:38:25.213Z,0
2016-12-03T00:39:36.249Z,0
2016-12-03T00:40:47.219Z,0
2016-12-03T00:41:58.399Z,0
2016-12-03T00:43:09.381Z,0
2016-12-03T00:44:20.388Z,0
2016-12-03T00:45:31.420Z,0
2016-12-03T00:46:42.405Z,0
2016-12-03T00:47:53.398Z,0
2016-12-03T00:49:04.378Z,0
2016-12-03T00:50:15.364Z,0
2016-12-03T00:51:26.604Z,0
2016-12-03T00:52:38.194Z,0
2016-12-03T00:53:49.586Z,0
2016-12-03T00:55:00.567Z,0
2016-12-03T00:56:11.559Z,0
2016-12-03T00:57:22.791Z,0
2016-12-03T00:58:33.764Z,0
2016-12-03T00:59:44.750Z,0
2016-12-03T01:00:55.922Z,0
2016-12-03T01:02:06.912Z,0
2016-12-03T01:03:17.942Z,0
2016-12-03T01:04:28.919Z,0
2016-12-03T01:05:39.897Z,0
2016-12-03T01:06:50.873Z,0
2016-12-03T01:08:02.092Z,0
2016-12-03T01:09:13.118Z,0
2016-12-03T01:10:24.109Z,0
2016-12-03T01:11:35.098Z,0
2016-12-03T01:12:46.090Z,0
2016-12-03T01:13:57.274Z,0
2016-12-03T01:15:08.308Z,0
2016-12-03T01:16:19.291Z,0
2016-12-03T01:17:30.304Z,0
2016-12-03T01:18:41.288Z,0
2016-12-03T01:19:52.277Z,0
2016-12-03T01:21:03.324Z,0
2016-12-03T01:22:14.312Z,0
2016-12-03T01:23:25.297Z,0
2016-12-03T01:24:36.281Z,0
2016-12-03T01:25:47.669Z,0
2016-12-03T01:26:58.695Z,0
2016-12-03T01:28:09.681Z,0
2016-12-03T01:29:20.667Z,0
2016-12-03T01:30:31.648Z,0
2016-12-03T01:31:42.837Z,0
2016-12-03T01:32:53.863Z,0
2016-12-03T01:34:05.058Z,0
2016-12-03T01:35:16.038Z,0
2016-12-03T01:36:27.013Z,0
2016-12-03T01:37:37.990Z,0
2016-12-03T01:38:49.021Z,0
2016-12-03T01:40:00.000Z,0
2016-12-03T01:41:11.192Z,0
2016-12-03T01:42:22.174Z,0
2016-12-03T01:43:33.156Z,0
2016-12-03T01:44:44.189Z,0
2016-12-03T01:45:55.397Z,0
2016-12-03T01:47:06.576Z,0
2016-12-03T01:48:17.559Z,0
2016-12-03T01:49:28.544Z,0
2016-12-03T01:50:39.776Z,0
2016-12-03T01:51:50.759Z,0
2016-12-03T01:53:01.741Z,0
2016-12-03T01:54:12.764Z,0
2016-12-03T01:55:23.955Z,0
2016-12-03T01:56:34.988Z,0
2016-12-03T01:57:45.978Z,0
2016-12-03T01:58:56.955Z,0
2016-12-03T02:00:08.133Z,0
2016-12-03T02:01:19.113Z,0
2016-12-03T02:02:30.140Z,0
2016-12-03T02:03:41.122Z,0
2016-12-03T02:04:52.307Z,0
2016-12-03T02:06:03.293Z,0
2016-12-03T02:07:14.272Z,0
2016-12-03T02:08:25.326Z,0
2016-12-03T02:09:36.311Z,0
2016-12-03T02:10:47.316Z,0
2016-12-03T02:11:58.298Z,0
2016-12-03T02:13:09.273Z,0
2016-12-03T02:14:20.307Z,0
2016-12-03T02:15:31.494Z,0
2016-12-03T02:16:42.471Z,0
2016-12-03T02:17:53.460Z,0
2016-12-03T02:19:04.436Z,0
2016-12-03T02:20:15.463Z,0
2016-12-03T02:21:26.447Z,0
2016-12-03T02:22:37.428Z,0
2016-12-03T02:23:48.402Z,0
2016-12-03T02:24:59.405Z,0
2016-12-03T02:26:10.453Z,0
2016-12-03T02:27:21.637Z,0
2016-12-03T02:28:32.621Z,0
2016-12-03T02:29:43.798Z,0
2016-12-03T02:30:54.979Z,0
2016-12-03T02:32:06.024Z,0
2016-12-03T02:33:17.009Z,0
2016-12-03T02:34:27.989Z,0
2016-12-03T02:35:39.187Z,0
2016-12-03T02:36:50.167Z,0
2016-12-03T02:38:01.202Z,0
2016-12-03T02:39:12.186Z,0
2016-12-03T02:40:23.168Z,0
2016-12-03T02:41:34.345Z,0
2016-12-03T02:42:45.327Z,0
2016-12-03T02:43:56.365Z,0
2016-12-03T02:45:07.547Z,0
2016-12-03T02:46:18.728Z,0
2016-12-03T02:47:29.706Z,0
2016-12-03T02:48:40.688Z,0
2016-12-03T02:49:51.921Z,0
2016-12-03T02:51:02.909Z,0
2016-12-03T02:52:13.896Z,0
2016-12-03T02:53:24.874Z,0
2016-12-03T02:54:35.854Z,0
2016-12-03T02:55:46.885Z,0
2016-12-03T02:56:57.879Z,0
2016-12-03T02:58:08.863Z,0
2016-12-03T02:59:20.048Z,0
2016-12-03T03:00:31.035Z,0
2016-12-03T03:01:42.065Z,0
2016-12-03T03:02:53.050Z,0
2016-12-03T03:04:04.031Z,0
2016-12-03T03:05:15.019Z,0
2016-12-03T03:06:26.040Z,0
2016-12-03T03:07:37.074Z,0
2016-12-03T03:08:48.055Z,0
2016-12-03T03:09:59.041Z,0
2016-12-03T03:11:10.227Z,0
2016-12-03T03:12:21.207Z,0
2016-12-03T03:13:32.239Z,0
2016-12-03T03:14:43.219Z,0
2016-12-03T03:15:54.213Z,0
2016-12-03T03:17:05.191Z,0
2016-12-03T03:18:16.172Z,0
2016-12-03T03:19:27.208Z,0
2016-12-03T03:20:38.192Z,0
2016-12-03T03:21:49.177Z,0
2016-12-03T03:23:00.160Z,0
2016-12-03T03:24:11.353Z,0
2016-12-03T03:25:22.383Z,0
2016-12-03T03:26:33.368Z,0
2016-12-03T03:27:44.349Z,0
2016-12-03T03:28:55.329Z,0
2016-12-03T03:30:06.309Z,0
2016-12-03T03:31:17.345Z,0
2016-12-03T03:32:28.327Z,0
2016-12-03T03:33:39.299Z,0
2016-12-03T03:34:50.281Z,0
2016-12-03T03:36:01.277Z,0
2016-12-03T03:37:12.302Z,0
2016-12-03T03:38:23.484Z,0
2016-12-03T03:39:34.659Z,0
2016-12-03T03:40:45.840Z,0
2016-12-03T03:41:56.827Z,0
2016-12-03T03:43:07.851Z,0
2016-12-03T03:44:18.828Z,0
2016-12-03T03:45:29.819Z,0
2016-12-03T03:46:41.009Z,0
2016-12-03T03:47:51.981Z,0
2016-12-03T03:49:03.013Z,0
2016-12-03T03:50:13.989Z,0
2016-12-03T03:51:24.970Z,0
2016-12-03T03:52:35.959Z,0
2016-12-03T03:53:46.971Z,0
2016-12-03T03:54:57.999Z,0
2016-12-03T03:56:08.978Z,0
2016-12-03T03:57:19.959Z,0
2016-12-03T03:58:30.947Z,0
2016-12-03T03:59:41.934Z,0
2016-12-03T04:00:53.189Z,0
2016-12-03T04:02:04.167Z,0
2016-12-03T04:03:15.145Z,0
2016-12-03T04:04:26.326Z,0
2016-12-03T04:05:37.306Z,0
2016-12-03T04:06:48.336Z,0
2016-12-03T04:07:59.323Z,0
2016-12-03T04:09:10.300Z,0
2016-12-03T04:10:21.280Z,0
2016-12-03T04:11:32.257Z,0
2016-12-03T04:12:43.281Z,0
2016-12-03T04:13:54.469Z,0
2016-12-03T04:15:05.448Z,0
2016-12-03T04:16:16.434Z,0
2016-12-03T04:17:27.616Z,0
2016-12-03T04:18:38.650Z,0
2016-12-03T04:19:49.634Z,0
2016-12-03T04:21:00.615Z,0
2016-12-03T04:22:11.624Z,0
2016-12-03T04:23:22.805Z,0
2016-12-03T04:24:33.834Z,0
2016-12-03T04:25:44.809Z,0
2016-12-03T04:26:55.990Z,0
2016-12-03T04:28:06.973Z,0
2016-12-03T04:29:17.952Z,0
2016-12-03T04:30:28.979Z,0
2016-12-03T04:31:39.963Z,0
2016-12-03T04:32:50.946Z,0
2016-12-03T04:34:01.930Z,0
2016-12-03T04:35:13.117Z,0
2016-12-03T04:36:24.348Z,0
2016-12-03T04:37:35.332Z,0
2016-12-03T04:38:46.316Z,0
2016-12-03T04:39:57.301Z,0
2016-12-03T04:41:08.478Z,0
2016-12-03T04:42:19.505Z,0
2016-12-03T04:43:30.490Z,0
2016-12-03T04:44:41.468Z,0
2016-12-03T04:45:52.444Z,0
2016-12-03T04:47:03.424Z,0
2016-12-03T04:48:14.661Z,0
2016-12-03T04:49:25.642Z,0
2016-12-03T04:50:36.625Z,0
2016-12-03T04:51:47.605Z,0
2016-12-03T04:52:58.590Z,0
2016-12-03T04:54:09.849Z,0
2016-12-03T04:55:20.831Z,0
2016-12-03T04:56:31.810Z,0
2016-12-03T04:57:42.783Z,0
2016-12-03T04:58:53.768Z,0
2016-12-03T05:00:04.800Z,0
2016-12-03T05:01:15.778Z,0
2016-12-03T05:02:26.757Z,0
2016-12-03T05:03:37.740Z,0
2016-12-03T05:04:48.928Z,0
2016-12-03T05:05:59.965Z,0
2016-12-03T05:07:10.949Z,0
2016-12-03T05:08:21.957Z,0
2016-12-03T05:09:32.935Z,0
2016-12-03T05:10:43.923Z,0
2016-12-03T05:11:54.957Z,0
2016-12-03T05:13:05.937Z,0
2016-12-03T05:14:16.916Z,0
2016-12-03T05:15:28.105Z,0
2016-12-03T05:16:39.081Z,0
2016-12-03T05:17:50.110Z,0
2016-12-03T05:19:01.092Z,0
2016-12-03T05:20:12.067Z,0
2016-12-03T05:21:23.046Z,0
2016-12-03T05:22:34.017Z,0
2016-12-03T05:23:45.076Z,0
2016-12-03T05:24:56.057Z,0
2016-12-03T05:26:07.046Z,0
2016-12-03T05:27:18.224Z,0
2016-12-03T05:28:29.209Z,0
2016-12-03T05:29:40.248Z,0
2016-12-03T05:30:51.265Z,0
2016-12-03T05:32:02.245Z,0
2016-12-03T05:33:13.426Z,0
2016-12-03T05:34:24.402Z,0
2016-12-03T05:35:35.437Z,0
2016-12-03T05:36:46.443Z,0
2016-12-03T05:37:57.425Z,0
2016-12-03T05:39:08.408Z,0
2016-12-03T05:40:19.381Z,0
2016-12-03T05:41:30.424Z,0
2016-12-03T05:42:41.399Z,0
2016-12-03T05:43:52.381Z,0
2016-12-03T05:45:03.358Z,0
2016-12-03T05:46:14.335Z,0
2016-12-03T05:47:25.360Z,0
2016-12-03T05:48:36.544Z,0
2016-12-03T05:49:47.526Z,0
2016-12-03T05:50:58.511Z,0
2016-12-03T05:52:09.492Z,0
2016-12-03T05:53:20.528Z,0
2016-12-03T05:54:31.502Z,0
2016-12-03T05:55:42.493Z,0
2016-12-03T05:56:53.468Z,0
2016-12-03T05:58:04.449Z,0
2016-12-03T05:59:15.476Z,0
2016-12-03T06:00:26.657Z,0
2016-12-03T06:01:37.641Z,0
2016-12-03T06:02:48.628Z,0
2016-12-03T06:03:59.602Z,0
2016-12-03T06:05:10.633Z,0
2016-12-03T06:06:21.616Z,0
2016-12-03T06:07:32.603Z,0
2016-12-03T06:08:43.584Z,0
2016-12-03T06:09:54.552Z,0
2016-12-03T06:11:05.587Z,0
2016-12-03T06:12:16.578Z,0
2016-12-03T06:13:27.562Z,0
2016-12-03T06:14:38.543Z,0
2016-12-03T06:15:49.519Z,0
2016-12-03T06:17:00.550Z,0
2016-12-03T06:18:11.534Z,0
2016-12-03T06:19:22.515Z,0
2016-12-03T06:20:33.513Z,0
2016-12-03T06:21:44.718Z,0
2016-12-03T06:22:55.745Z,0
2016-12-03T06:24:06.721Z,0
2016-12-03T06:25:17.940Z,0
2016-12-03T06:26:28.924Z,0
2016-12-03T06:27:39.900Z,0
2016-12-03T06:28:50.943Z,0
2016-12-03T06:30:01.918Z,0
2016-12-03T06:31:12.898Z,0
2016-12-03T06:32:24.082Z,0
2016-12-03T06:33:35.063Z,0
2016-12-03T06:34:46.089Z,0
2016-12-03T06:35:57.071Z,0
2016-12-03T06:37:08.045Z,0
2016-12-03T06:38:19.024Z,0
2016-12-03T06:39:30.005Z,0
2016-12-03T06:40:41.239Z,0
2016-12-03T06:41:52.217Z,0
2016-12-03T06:43:03.400Z,0
2016-12-03T06:44:14.578Z,0
2016-12-03T06:45:25.553Z,0
2016-12-03T06:46:36.524Z,0
2016-12-03T06:47:47.504Z,0
2016-12-03T06:48:58.486Z,0
2016-12-03T06:50:09.465Z,0
2016-12-03T06:51:20.499Z,0
2016-12-03T06:52:31.477Z,0
2016-12-03T06:53:42.465Z,0
2016-12-03T06:54:53.651Z,0
2016-12-03T06:56:04.631Z,0
2016-12-03T06:57:15.859Z,0
2016-12-03T06:58:26.843Z,0
2016-12-03T06:59:37.831Z,0
2016-12-03T07:00:48.806Z,0
2016-12-03T07:01:59.993Z,0
2016-12-03T07:03:11.023Z,0
2016-12-03T07:04:22.204Z,0
2016-12-03T07:05:33.406Z,0
2016-12-03T07:06:44.385Z,0
2016-12-03T07:07:55.367Z,0
2016-12-03T07:09:06.351Z,5
2016-12-03T07:10:17.328Z,5
2016-12-03T07:11:28.305Z,5
2016-12-03T07:12:39.280Z,5
2016-12-03T07:13:50.263Z,5
2016-12-03T07:15:01.235Z,5
2016-12-03T07:16:12.210Z,5
2016-12-03T07:17:23.196Z,5
2016-12-03T07:18:34.226Z,10
2016-12-03T07:19:45.232Z,10
2016-12-03T07:20:56.213Z,10
2016-12-03T07:22:07.393Z,15
2016-12-03T07:23:18.377Z,15
2016-12-03T07:24:29.614Z,15
2016-12-03T07:25:40.600Z,20
2016-12-03T07:26:51.577Z,20
2016-12-03T07:28:02.561Z,20
2016-12-03T07:29:13.540Z,20
2016-12-03T07:30:24.566Z,25
2016-12-03T07:31:35.549Z,30
2016-12-03T07:32:46.528Z,30
2016-12-03T07:33:57.503Z,30
2016-12-03T07:35:08.481Z,30
2016-12-03T07:36:19.707Z,35
2016-12-03T07:37:30.686Z,35
2016-12-03T07:38:41.662Z,35
2016-12-03T07:39:52.633Z,40
2016-12-03T07:41:03.613Z,40
2016-12-03T07:42:14.852Z,45
2016-12-03T07:43:26.044Z,50
2016-12-03T07:44:37.224Z,45
2016-12-03T07:45:48.403Z,50
2016-12-03T07:46:59.592Z,60
2016-12-03T07:48:10.821Z,65
2016-12-03T07:49:21.800Z,65
2016-12-03T07:50:33.019Z,65
2016-12-03T07:51:43.996Z,65
2016-12-03T07:52:55.007Z,60
2016-12-03T07:54:06.269Z,65
2016-12-03T07:55:17.255Z,75
2016-12-03T07:56:28.234Z,70
2016-12-03T07:57:39.209Z,60
2016-12-03T07:58:50.192Z,65
2016-12-03T08:00:01.227Z,75
2016-12-03T08:01:12.213Z,80
2016-12-03T08:02:23.399Z,85
2016-12-03T08:03:34.377Z,85
2016-12-03T08:04:45.362Z,85
2016-12-03T08:05:56.398Z,90
2016-12-03T08:07:07.373Z,90
2016-12-03T08:08:18.555Z,90
2016-12-03T08:09:29.735Z,95
2016-12-03T08:10:40.718Z,100
2016-12-03T08:11:51.758Z,120
2016-12-03T08:13:02.736Z,145
2016-12-03T08:14:13.718Z,150
2016-12-03T08:15:24.684Z,170
2016-12-03T08:16:35.670Z,185
2016-12-03T08:17:46.699Z,185
2016-12-03T08:18:57.673Z,190
2016-12-03T08:20:08.656Z,160
2016-12-03T08:21:19.839Z,140
2016-12-03T08:22:30.813Z,155
2016-12-03T08:23:41.870Z,170
2016-12-03T08:24:53.056Z,150
2016-12-03T08:26:04.036Z,140
2016-12-03T08:27:15.026Z,160
2016-12-03T08:28:26.012Z,195
2016-12-03T08:29:37.646Z,165
2016-12-03T08:30:48.631Z,145
2016-12-03T08:31:59.610Z,140
2016-12-03T08:33:10.786Z,140
2016-12-03T08:34:21.768Z,145
2016-12-03T08:35:32.795Z,145
2016-12-03T08:36:43.812Z,130
2016-12-03T08:37:54.793Z,140
2016-12-03T08:39:05.773Z,145
2016-12-03T08:40:16.757Z,150
2016-12-03T08:41:27.777Z,170
2016-12-03T08:42:38.759Z,185
2016-12-03T08:43:49.935Z,180
2016-12-03T08:45:01.121Z,175
2016-12-03T08:46:12.113Z,195
2016-12-03T08:47:23.160Z,195
2016-12-03T08:48:34.135Z,195
2016-12-03T08:49:45.318Z,175
2016-12-03T08:50:56.298Z,155
2016-12-03T08:52:07.275Z,160
2016-12-03T08:53:18.305Z,180
2016-12-03T08:54:29.282Z,210
2016-12-03T08:55:40.268Z,235
2016-12-03T08:56:51.250Z,235
2016-12-03T08:58:02.236Z,235
2016-12-03T08:59:13.264Z,245
2016-12-03T09:00:24.280Z,265
2016-12-03T09:01:35.462Z,285
2016-12-03T09:02:46.456Z,420
2016-12-03T09:03:57.468Z,585
2016-12-03T09:05:08.510Z,635
2016-12-03T09:06:19.894Z,655
2016-12-03T09:07:30.876Z,545
2016-12-03T09:08:41.855Z,525
2016-12-03T09:09:52.831Z,680
2016-12-03T09:11:03.865Z,595
2016-12-03T09:12:15.042Z,385
2016-12-03T09:13:26.026Z,345
2016-12-03T09:14:37.001Z,405
2016-12-03T09:15:47.987Z,400
2016-12-03T09:16:59.027Z,365
2016-12-03T09:18:10.015Z,350
2016-12-03T09:19:20.995Z,350
2016-12-03T09:20:31.980Z,410
2016-12-03T09:21:42.964Z,855
2016-12-03T09:22:54.003Z,1335
2016-12-03T09:24:05.186Z,1030
2016-12-03T09:25:16.172Z,635
2016-12-03T09:26:27.157Z,620
2016-12-03T09:27:38.141Z,505
2016-12-03T09:28:49.189Z,480
2016-12-03T09:30:00.165Z,475
2016-12-03T09:31:11.146Z,585
2016-12-03T09:32:22.119Z,625
2016-12-03T09:33:33.103Z,455
2016-12-03T09:34:44.143Z,480
2016-12-03T09:35:55.127Z,1020
2016-12-03T09:37:06.119Z,1250
2016-12-03T09:38:17.335Z,1490
2016-12-03T09:39:28.323Z,1300
2016-12-03T09:40:39.361Z,865
2016-12-03T09:41:50.356Z,420
2016-12-03T09:43:01.335Z,400
2016-12-03T09:44:12.318Z,375
2016-12-03T09:45:23.311Z,355
2016-12-03T09:46:34.345Z,340
2016-12-03T09:47:45.730Z,320
2016-12-03T09:48:56.718Z,330
2016-12-03T09:50:07.722Z,365
2016-12-03T09:51:18.906Z,395
2016-12-03T09:52:30.149Z,460
2016-12-03T09:53:41.139Z,505
2016-12-03T09:54:52.322Z,505
2016-12-03T09:56:03.314Z,500
2016-12-03T09:57:14.302Z,770
2016-12-03T09:58:25.363Z,465
2016-12-03T09:59:36.341Z,455
2016-12-03T10:00:47.332Z,445
2016-12-03T10:01:58.320Z,485
2016-12-03T10:03:09.301Z,480
2016-12-03T10:04:20.336Z,1075
2016-12-03T10:05:31.523Z,850
2016-12-03T10:06:42.701Z,675
2016-12-03T10:07:53.896Z,545
2016-12-03T10:09:04.882Z,575
2016-12-03T10:10:15.916Z,770
2016-12-03T10:11:27.130Z,1100
2016-12-03T10:12:38.315Z,610
2016-12-03T10:13:49.303Z,590
2016-12-03T10:15:00.276Z,1240
2016-12-03T10:16:11.317Z,745
2016-12-03T10:17:22.303Z,580
2016-12-03T10:18:33.296Z,545
2016-12-03T10:19:44.279Z,540
2016-12-03T10:20:55.274Z,470
2016-12-03T10:22:06.320Z,475
2016-12-03T10:23:17.311Z,465
2016-12-03T10:24:28.291Z,430
2016-12-03T10:25:39.490Z,370
2016-12-03T10:26:50.472Z,345
2016-12-03T10:28:01.508Z,385
2016-12-03T10:29:12.706Z,405
2016-12-03T10:30:23.896Z,415
2016-12-03T10:31:34.879Z,410
2016-12-03T10:32:45.869Z,400
2016-12-03T10:33:57.138Z,410
2016-12-03T10:35:08.137Z,505
2016-12-03T10:36:19.128Z,415
2016-12-03T10:37:30.103Z,375
2016-12-03T10:38:41.289Z,370
2016-12-03T10:39:52.525Z,370
2016-12-03T10:41:03.511Z,365
2016-12-03T10:42:14.504Z,365
2016-12-03T10:43:25.703Z,380
2016-12-03T10:44:36.692Z,390
2016-12-03T10:45:47.919Z,405
2016-12-03T10:46:58.900Z,415
2016-12-03T10:48:09.885Z,415
2016-12-03T10:49:21.075Z,430
2016-12-03T10:50:32.255Z,435
2016-12-03T10:51:43.295Z,440
2016-12-03T10:52:54.280Z,445
2016-12-03T10:54:05.265Z,475
2016-12-03T10:55:16.264Z,495
2016-12-03T10:56:27.248Z,530
2016-12-03T10:57:38.286Z,725
2016-12-03T10:58:49.273Z,830
2016-12-03T11:00:00.261Z,1230
2016-12-03T11:01:11.246Z,770
2016-12-03T11:02:22.257Z,555
2016-12-03T11:03:33.300Z,505
2016-12-03T11:04:44.285Z,485
2016-12-03T11:05:55.273Z,470
2016-12-03T11:07:06.259Z,455
2016-12-03T11:08:17.240Z,460
2016-12-03T11:09:28.273Z,430
2016-12-03T11:10:39.461Z,405
2016-12-03T11:11:50.442Z,390
2016-12-03T11:13:01.628Z,385
2016-12-03T11:14:12.611Z,395
2016-12-03T11:15:23.637Z,405
2016-12-03T11:16:34.623Z,420
2016-12-03T11:17:45.603Z,430
2016-12-03T11:18:56.587Z,410
2016-12-03T11:20:07.584Z,405
2016-12-03T11:21:18.627Z,415
2016-12-03T11:22:29.642Z,415
2016-12-03T11:23:40.638Z,410
2016-12-03T11:24:51.626Z,405
2016-12-03T11:26:02.616Z,415
2016-12-03T11:27:13.656Z,445
2016-12-03T11:28:24.642Z,435
2016-12-03T11:29:35.628Z,445
2016-12-03T11:30:46.610Z,485
2016-12-03T11:31:57.599Z,800
2016-12-03T11:33:08.637Z,605
2016-12-03T11:34:19.830Z,750
2016-12-03T11:35:30.818Z,780
2016-12-03T11:36:41.842Z,615
2016-12-03T11:37:52.835Z,445
2016-12-03T11:39:03.872Z,505
2016-12-03T11:40:14.855Z,815
2016-12-03T11:41:25.847Z,790
2016-12-03T11:42:36.836Z,845
2016-12-03T11:43:47.820Z,945
2016-12-03T11:44:58.866Z,980
2016-12-03T11:46:10.053Z,850
2016-12-03T11:47:21.240Z,755
2016-12-03T11:48:32.223Z,725
2016-12-03T11:49:43.215Z,710
2016-12-03T11:50:54.485Z,655
2016-12-03T11:52:05.472Z,735
2016-12-03T11:53:16.654Z,505
2016-12-03T11:54:27.639Z,675
2016-12-03T11:55:38.634Z,775
2016-12-03T11:56:49.672Z,820
2016-12-03T11:58:00.715Z,845
2016-12-03T11:59:11.715Z,670
2016-12-03T12:00:22.696Z,565
2016-12-03T12:01:33.687Z,425
2016-12-03T12:02:44.726Z,280
2016-12-03T12:03:55.708Z,275
2016-12-03T12:05:06.699Z,320
2016-12-03T12:06:17.686Z,525
2016-12-03T12:07:28.668Z,695
2016-12-03T12:08:39.710Z,820
2016-12-03T12:09:50.703Z,805
2016-12-03T12:11:01.691Z,650
2016-12-03T12:12:12.911Z,620
2016-12-03T12:13:23.906Z,545
2016-12-03T12:14:34.945Z,400
2016-12-03T12:15:45.951Z,310
2016-12-03T12:16:57.336Z,305
2016-12-03T12:18:08.330Z,445
2016-12-03T12:19:19.325Z,645
2016-12-03T12:20:30.373Z,690
2016-12-03T12:21:41.361Z,680
2016-12-03T12:22:52.349Z,695
2016-12-03T12:24:03.362Z,755
2016-12-03T12:25:14.352Z,760
2016-12-03T12:26:25.395Z,745
2016-12-03T12:27:36.586Z,735
2016-12-03T12:28:47.584Z,750
2016-12-03T12:29:58.782Z,745
2016-12-03T12:31:09.768Z,695
2016-12-03T12:32:20.806Z,610
2016-12-03T12:33:31.994Z,645
2016-12-03T12:34:42.987Z,660
2016-12-03T12:35:53.980Z,615
2016-12-03T12:37:04.968Z,605
2016-12-03T12:38:15.999Z,580
2016-12-03T12:39:26.985Z,565
2016-12-03T12:40:37.984Z,600
2016-12-03T12:41:49.167Z,510
2016-12-03T12:43:00.357Z,440
2016-12-03T12:44:11.397Z,425
2016-12-03T12:45:22.387Z,490
2016-12-03T12:46:33.373Z,480
2016-12-03T12:47:44.361Z,475
2016-12-03T12:48:55.353Z,415
2016-12-03T12:50:06.393Z,405
2016-12-03T12:51:17.391Z,445
2016-12-03T12:52:28.411Z,390
2016-12-03T12:53:39.392Z,325
2016-12-03T12:54:50.375Z,280
2016-12-03T12:56:01.416Z,280
2016-12-03T12:57:12.408Z,315
2016-12-03T12:58:23.396Z,380
2016-12-03T12:59:34.381Z,340
2016-12-03T13:00:45.570Z,245
2016-12-03T13:01:56.605Z,255
2016-12-03T13:03:07.595Z,280
2016-12-03T13:04:18.585Z,280
2016-12-03T13:05:29.602Z,345
2016-12-03T13:06:40.600Z,395
2016-12-03T13:07:51.642Z,385
2016-12-03T13:09:02.631Z,325
2016-12-03T13:10:13.821Z,345
2016-12-03T13:11:24.811Z,385
2016-12-03T13:12:35.850Z,405
2016-12-03T13:13:47.045Z,390
2016-12-03T13:14:58.036Z,345
2016-12-03T13:16:09.028Z,300
2016-12-03T13:17:20.041Z,290
2016-12-03T13:18:31.082Z,230
2016-12-03T13:19:42.066Z,240
2016-12-03T13:20:53.050Z,250
2016-12-03T13:22:04.073Z,210
2016-12-03T13:23:15.055Z,235
2016-12-03T13:24:26.088Z,290
2016-12-03T13:25:37.074Z,275
2016-12-03T13:26:48.067Z,265
2016-12-03T13:27:59.257Z,265
2016-12-03T13:29:10.255Z,255
2016-12-03T13:30:21.278Z,285
2016-12-03T13:31:32.462Z,295
2016-12-03T13:32:43.457Z,275
2016-12-03T13:33:54.447Z,235
2016-12-03T13:35:05.431Z,235
2016-12-03T13:36:16.473Z,260
2016-12-03T13:37:27.458Z,265
2016-12-03T13:38:38.466Z,240
2016-12-03T13:39:49.452Z,235
2016-12-03T13:41:00.441Z,235
2016-12-03T13:42:11.499Z,210
2016-12-03T13:43:22.686Z,200
2016-12-03T13:44:33.666Z,170
2016-12-03T13:45:44.857Z,150
2016-12-03T13:46:55.843Z,140
2016-12-03T13:48:07.088Z,140
2016-12-03T13:49:18.079Z,140
2016-12-03T13:50:29.068Z,140
2016-12-03T13:51:40.052Z,145
2016-12-03T13:52:51.041Z,150
2016-12-03T13:54:02.073Z,145
2016-12-03T13:55:13.266Z,145
2016-12-03T13:56:24.448Z,140
2016-12-03T13:57:35.438Z,135
2016-12-03T13:58:46.435Z,130
2016-12-03T13:59:57.473Z,130
2016-12-03T14:01:08.663Z,130
2016-12-03T14:02:19.648Z,130
2016-12-03T14:03:30.836Z,130
2016-12-03T14:04:41.830Z,120
2016-12-03T14:05:52.861Z,120
2016-12-03T14:07:03.861Z,120
2016-12-03T14:08:14.846Z,115
2016-12-03T14:09:25.833Z,115
2016-12-03T14:10:37.023Z,110
2016-12-03T14:11:48.058Z,110
2016-12-03T14:12:59.048Z,110
2016-12-03T14:14:10.038Z,105
2016-12-03T14:15:21.223Z,105
2016-12-03T14:16:32.209Z,100
2016-12-03T14:17:43.244Z,100
2016-12-03T14:18:54.231Z,100
2016-12-03T14:20:05.215Z,95
2016-12-03T14:21:16.206Z,95
2016-12-03T14:22:27.197Z,95
2016-12-03T14:23:38.232Z,90
2016-12-03T14:24:49.215Z,90
2016-12-03T14:26:00.204Z,85
2016-12-03T14:27:11.200Z,85
2016-12-03T14:28:22.180Z,85
2016-12-03T14:29:33.208Z,80
2016-12-03T14:30:44.190Z,80
2016-12-03T14:31:55.175Z,80
2016-12-03T14:33:06.597Z,80
2016-12-03T14:34:17.582Z,80
2016-12-03T14:35:28.623Z,75
2016-12-03T14:36:39.799Z,75
2016-12-03T14:37:50.790Z,70
2016-12-03T14:39:01.767Z,70
2016-12-03T14:40:12.750Z,70
2016-12-03T14:41:23.779Z,65
2016-12-03T14:42:34.958Z,65
2016-12-03T14:43:46.138Z,60
2016-12-03T14:44:57.124Z,60
2016-12-03T14:46:08.105Z,55
2016-12-03T14:47:19.143Z,55
2016-12-03T14:48:30.122Z,55
2016-12-03T14:49:41.115Z,50
2016-12-03T14:50:52.099Z,50
2016-12-03T14:52:03.089Z,45
2016-12-03T14:53:14.125Z,45
2016-12-03T14:54:25.112Z,45
2016-12-03T14:55:36.290Z,45
2016-12-03T14:56:47.267Z,45
2016-12-03T14:57:58.258Z,40
2016-12-03T14:59:09.296Z,40
2016-12-03T15:00:20.281Z,35
2016-12-03T15:01:31.264Z,35
2016-12-03T15:02:42.457Z,30
2016-12-03T15:03:53.440Z,30
2016-12-03T15:05:04.472Z,30
2016-12-03T15:06:15.457Z,25
2016-12-03T15:07:26.442Z,25
2016-12-03T15:08:37.450Z,25
2016-12-03T15:09:48.430Z,20
2016-12-03T15:10:59.463Z,20
2016-12-03T15:12:10.436Z,20
2016-12-03T15:13:21.423Z,15
2016-12-03T15:14:32.806Z,15
2016-12-03T15:15:43.786Z,15
2016-12-03T15:16:54.816Z,15
2016-12-03T15:18:05.803Z,10
2016-12-03T15:19:16.785Z,10
2016-12-03T15:20:27.762Z,10
2016-12-03T15:21:38.747Z,10
2016-12-03T15:22:49.787Z,10
2016-12-03T15:24:00.766Z,5
2016-12-03T15:25:12.162Z,5
2016-12-03T15:26:23.350Z,5
2016-12-03T15:27:34.334Z,5
2016-12-03T15:28:45.570Z,5
2016-12-03T15:29:56.556Z,5
2016-12-03T15:31:07.530Z,5
2016-12-03T15:32:18.704Z,0
2016-12-03T15:33:29.684Z,0
2016-12-03T15:34:40.711Z,0
2016-12-03T15:35:51.711Z,0
2016-12-03T15:37:02.698Z,0
2016-12-03T15:38:13.683Z,0
2016-12-03T15:39:24.667Z,0
2016-12-03T15:40:35.902Z,0
2016-12-03T15:41:46.893Z,0
2016-12-03T15:42:58.082Z,0
2016-12-03T15:44:09.072Z,0
2016-12-03T15:45:20.058Z,0
2016-12-03T15:46:31.089Z,0
2016-12-03T15:47:42.066Z,0
2016-12-03T15:48:53.050Z,0
2016-12-03T15:50:04.030Z,0
2016-12-03T15:51:15.017Z,0
2016-12-03T15:52:26.054Z,0
2016-12-03T15:53:37.233Z,0
2016-12-03T15:54:48.443Z,0
2016-12-03T15:55:59.422Z,0
2016-12-03T15:57:10.403Z,0
2016-12-03T15:58:21.443Z,0
2016-12-03T15:59:32.424Z,0
2016-12-03T16:00:43.413Z,0
2016-12-03T16:01:54.402Z,0
2016-12-03T16:03:05.381Z,0
2016-12-03T16:04:16.625Z,0
2016-12-03T16:05:27.605Z,0
2016-12-03T16:06:38.584Z,0
2016-12-03T16:07:49.566Z,0
2016-12-03T16:09:00.744Z,0
2016-12-03T16:10:11.772Z,0
2016-12-03T16:11:22.752Z,0
2016-12-03T16:12:33.939Z,0
2016-12-03T16:13:44.925Z,0
2016-12-03T16:14:55.907Z,0
2016-12-03T16:16:06.944Z,0
2016-12-03T16:17:18.123Z,0
2016-12-03T16:18:29.166Z,0
2016-12-03T16:19:40.166Z,0
2016-12-03T16:20:51.352Z,0
2016-12-03T16:22:02.403Z,0
2016-12-03T16:23:13.581Z,0
2016-12-03T16:24:24.580Z,0
2016-12-03T16:25:35.757Z,0
2016-12-03T16:26:46.732Z,0
2016-12-03T16:27:57.965Z,0
2016-12-03T16:29:09.148Z,0
2016-12-03T16:30:20.325Z,0
2016-12-03T16:31:31.315Z,0
2016-12-03T16:32:42.295Z,0
2016-12-03T16:33:53.528Z,0
2016-12-03T16:35:04.717Z,0
2016-12-03T16:36:15.709Z,0
2016-12-03T16:37:26.728Z,0
2016-12-03T16:38:37.716Z,0
2016-12-03T16:39:48.746Z,0
2016-12-03T16:40:59.721Z,0
2016-12-03T16:42:10.716Z,0
2016-12-03T16:43:21.695Z,0
2016-12-03T16:44:32.677Z,0
2016-12-03T16:45:43.711Z,0
2016-12-03T16:46:54.689Z,0
2016-12-03T16:48:05.670Z,0
2016-12-03T16:49:16.856Z,0
2016-12-03T16:50:27.847Z,0
2016-12-03T16:51:38.883Z,0
2016-12-03T16:52:49.864Z,0
2016-12-03T16:54:00.847Z,0
2016-12-03T16:55:11.838Z,0
2016-12-03T16:56:22.821Z,0
2016-12-03T16:57:33.851Z,0
2016-12-03T16:58:44.830Z,0